Powder River, Wyoming
Current Conditions -  °F | °C
As of 9:53 PM on Saturday 22 Nov 2014 (Local Time) from KCPR Reporting Station
Overcast Overcast  
Wind Chill: 30°   Ceiling: 9000
Heat Index: 34°   Visibility: 10mi
Dew Point: 29°   Wind: 5mph
Humidity: 82%   Direction: 180°S
Pressure: 29.61"   Gusts: NA
Location:  43.03°N, 106.99°W
Report Text: KCPR 230453Z AUTO 18004KT 10SM BKN090 OVC120 01/M02 A2961 RMK AO2 SLP023 T00111017
Loading
Personal Weather Stations






























Interactive Weather Map New forecast layout! Learn more

10-Day Weather Forecast

Advertisements
Track Severe Weather on mobile